Georgetown, TX (78628)

9:25 AM CST on February 21, 2017 (GMT -0600)
Oak Crest 1 | | Change Station

Elev 774 ft 30.66 °N, 97.71 °W | Updated 17 seconds ago

Clear
Clear
62.8 °F
Feels Like 62.8 °F
N
1.3
Wind Variable Wind from NW
Gusts 2.5 mph

Today
High -- | Low -- °F
--% Chance of Precip.
Yesterday
High -- | Low -- °F
Precip. -- in
Pressure 30.01 in
Visibility 10.0 miles
Clouds Clear
Dew Point 40 °F
Humidity 43%
Rainfall 0.00 in
Snow Depth Not available.
7:05 AM 6:23 PM
Waning Crescent, 24% visible
METAR KGTU 211448Z 30011KT 10SM CLR 15/03 A3001
Pressure 30.01 in
Visibility 10.0 miles
Clouds Clear
Dew Point 40 °F
Humidity 43%
Rainfall 0.00 in
Snow Depth Not available.
7:05 AM 6:23 PM
Waning Crescent, 24% visible
METAR KGTU 211448Z 30011KT 10SM CLR 15/03 A3001

Get Your Daily Forecast Email!

Thanks for signing up!

Be on the lookout for a verification email in your inbox.

You'll start receiving the daily forecast at 8 AM.

×

10-Day Weather Forecast

Almanac

Astronomy

Feb. 21, 2017 Rise Set
Actual Time
Civil Twilight
Nautical Twilight
Astronomical Twilight
Moon
Length of Visible Light
Length of Day
Tomorrow will be .
, % of the Moon is Illuminated

Today's Extremes

State Highs State Lows

Community

WunderPhotos

Upload Photos

1,962,540 photos uploaded!

WunderBlog® & News

Nearby

Air Quality

  Air Quality AQ Index Pollutant
Not available.

Snow Depth

Station Depth Elevation

Earthquake Activity

City Distance Mag. Time & Date
Minimum magnitude displayed is 2.5.

Coastal Water Temperatures

Place Temperature

Stations

Nearby Weather Stations

Station Location Temp. Windchill Dew Point Humidity Wind Precip. Elev Updated Type
                   

Watches & Warnings

There are currently no watches in effect.